Time;durP1;ratioP1;P1;durP2;ratioP2;P2;SDS_P1;SDS_P2;PMS_P1;PMS_P2;Temp;Humidity;BMP_temperature;BMP_pressure;BME280_temperature;BME280_humidity;BME280_pressure;Samples;Min_cycle;Max_cycle;Signal;HPM_P1;HPM_P2
2021/12/02 00:00:43;;;;;;;1.23;0.90;;;19.70;55.10;;;;;;6163576;23;20005;-68
2021/12/02 00:03:09;;;;;;;0.80;0.60;;;19.60;55.20;;;;;;6164021;23;20007;-68
2021/12/02 00:05:35;;;;;;;1.13;0.60;;;19.70;55.20;;;;;;6215577;23;19996;-68
2021/12/02 00:08:01;;;;;;;1.17;0.60;;;19.60;55.20;;;;;;6188586;23;20032;-68
2021/12/02 00:10:30;;;;;;;0.82;0.45;;;19.60;55.30;;;;;;6188831;23;20003;-68
2021/12/02 00:12:57;;;;;;;1.20;0.75;;;19.60;55.20;;;;;;6215422;23;20008;-68
2021/12/02 00:15:26;;;;;;;2.15;0.70;;;19.60;55.20;;;;;;6164237;23;20005;-68
2021/12/02 00:18:08;;;;;;;1.95;0.68;;;19.60;55.20;;;;;;6215323;23;20083;-68
2021/12/02 00:23:33;;;;;;;2.05;0.80;;;19.60;55.30;;;;;;6193542;23;20514;-68
2021/12/02 00:26:09;;;;;;;1.20;0.50;;;19.60;55.30;;;;;;6215088;23;20004;-68
2021/12/02 00:28:36;;;;;;;1.02;0.60;;;19.50;55.20;;;;;;6188084;23;20515;-68
2021/12/02 00:31:01;;;;;;;0.95;0.60;;;19.50;55.20;;;;;;6188600;23;20004;-68
2021/12/02 00:33:29;;;;;;;0.70;0.50;;;19.50;55.20;;;;;;6215198;23;20024;-68
2021/12/02 00:35:54;;;;;;;0.95;0.65;;;19.50;55.20;;;;;;6188605;23;20009;-68
2021/12/02 00:38:21;;;;;;;1.17;0.63;;;19.50;55.30;;;;;;6163718;23;20005;-68
2021/12/02 00:40:46;;;;;;;0.63;0.60;;;19.50;55.30;;;;;;6188697;23;20039;-68
2021/12/02 00:43:13;;;;;;;1.45;0.50;;;19.50;55.30;;;;;;6188036;23;20440;-68
2021/12/02 00:45:40;;;;;;;0.80;0.47;;;19.50;55.40;;;;;;6215059;23;20051;-68
2021/12/02 00:48:07;;;;;;;4.40;0.60;;;19.50;55.40;;;;;;6164305;23;20000;-68
2021/12/02 00:50:33;;;;;;;1.50;0.68;;;19.50;55.50;;;;;;6163876;23;20302;-68
2021/12/02 00:52:59;;;;;;;1.40;0.70;;;19.50;55.50;;;;;;6163706;23;20088;-68
2021/12/02 00:55:25;;;;;;;1.77;0.52;;;19.50;55.50;;;;;;6163710;23;20004;-68
2021/12/02 00:57:50;;;;;;;0.80;0.40;;;19.50;55.60;;;;;;6188064;23;20314;-68
2021/12/02 01:00:16;;;;;;;0.75;0.50;;;19.50;55.50;;;;;;6163588;23;20000;-68
2021/12/02 01:02:42;;;;;;;1.77;0.60;;;19.50;55.60;;;;;;6188376;23;20011;-68
2021/12/02 01:05:08;;;;;;;0.93;0.60;;;19.50;55.60;;;;;;6188280;23;20392;-68
2021/12/02 01:07:34;;;;;;;0.98;0.60;;;19.50;55.60;;;;;;6215024;23;19996;-68
2021/12/02 01:09:59;;;;;;;1.08;0.60;;;19.50;55.60;;;;;;6163775;23;20004;-68
2021/12/02 01:12:25;;;;;;;1.70;0.65;;;19.50;55.60;;;;;;6187905;23;20318;-68
2021/12/02 01:14:51;;;;;;;1.17;0.60;;;19.50;55.90;;;;;;6214960;23;20007;-68
2021/12/02 01:17:17;;;;;;;1.15;0.47;;;19.50;55.70;;;;;;6214548;23;20099;-68
2021/12/02 01:19:42;;;;;;;0.93;0.60;;;19.50;55.70;;;;;;6214684;23;20005;-68
2021/12/02 01:22:08;;;;;;;0.90;0.57;;;19.50;55.70;;;;;;6214526;23;20444;-68
2021/12/02 01:24:34;;;;;;;0.70;0.40;;;19.50;55.70;;;;;;6188151;23;20011;-68
2021/12/02 01:26:59;;;;;;;1.30;0.63;;;19.50;55.80;;;;;;6187719;23;20001;-68
2021/12/02 01:29:25;;;;;;;0.57;0.40;;;19.50;55.80;;;;;;6214770;23;20005;-68
2021/12/02 01:31:53;;;;;;;1.02;0.60;;;19.50;55.80;;;;;;6163320;23;20032;-68
2021/12/02 01:34:24;;;;;;;0.57;0.47;;;19.50;55.80;;;;;;6188529;23;20132;-68
2021/12/02 01:36:50;;;;;;;1.52;0.40;;;19.50;55.80;;;;;;6188578;23;20004;-68
2021/12/02 01:39:16;;;;;;;0.73;0.40;;;19.50;55.90;;;;;;6214488;23;20000;-68
2021/12/02 01:41:47;;;;;;;1.58;0.30;;;19.40;55.80;;;;;;6187764;23;20035;-69
2021/12/02 01:44:13;;;;;;;0.80;0.47;;;19.50;55.90;;;;;;6187963;23;20083;-69
2021/12/02 01:46:39;;;;;;;0.43;0.30;;;19.40;55.90;;;;;;6163697;23;20004;-69
2021/12/02 01:49:05;;;;;;;0.52;0.30;;;19.40;55.90;;;;;;6214402;23;20008;-69
2021/12/02 01:51:42;;;;;;;0.65;0.43;;;19.40;55.90;;;;;;6214444;23;20046;-69
2021/12/02 01:54:18;;;;;;;1.17;0.60;;;19.40;56.00;;;;;;6214574;23;20035;-69
2021/12/02 01:56:48;;;;;;;1.48;0.63;;;19.40;56.00;;;;;;6189816;23;20004;-69
2021/12/02 01:59:18;;;;;;;0.40;0.40;;;19.40;56.00;;;;;;6188036;23;20012;-69
2021/12/02 02:01:45;;;;;;;0.60;0.40;;;19.40;56.00;;;;;;6214498;23;20080;-69
2021/12/02 02:04:10;;;;;;;0.77;0.50;;;19.40;56.00;;;;;;6214425;23;20008;-69
2021/12/02 02:06:37;;;;;;;0.57;0.40;;;19.40;56.10;;;;;;6186745;23;20001;-69
2021/12/02 02:09:03;;;;;;;0.90;0.40;;;19.40;56.00;;;;;;6213137;23;20024;-69
2021/12/02 02:11:30;;;;;;;0.50;0.50;;;19.40;56.10;;;;;;6161873;23;20080;-68
2021/12/02 02:13:56;;;;;;;1.25;0.47;;;19.40;56.10;;;;;;6186130;23;20001;-69
2021/12/02 02:16:22;;;;;;;0.85;0.40;;;19.40;56.10;;;;;;6139171;23;20407;-69
2021/12/02 02:18:47;;;;;;;1.38;0.50;;;19.40;56.10;;;;;;6164118;23;20031;-69
2021/12/02 02:21:16;;;;;;;1.20;0.50;;;19.40;56.20;;;;;;6214869;23;20455;-68
2021/12/02 02:23:50;;;;;;;1.02;0.30;;;19.40;56.30;;;;;;6215611;23;20000;-68
2021/12/02 02:26:21;;;;;;;0.40;0.30;;;19.40;56.30;;;;;;6215698;23;20051;-68
2021/12/02 02:28:47;;;;;;;0.52;0.30;;;19.40;56.40;;;;;;6214893;23;20023;-68
2021/12/02 02:31:13;;;;;;;0.88;0.57;;;19.40;56.30;;;;;;6189563;23;20071;-68
2021/12/02 02:33:39;;;;;;;1.20;0.50;;;19.40;56.30;;;;;;6215848;23;20376;-68
2021/12/02 02:36:06;;;;;;;2.20;0.50;;;19.50;56.30;;;;;;6214801;23;20348;-68
2021/12/02 02:38:33;;;;;;;0.95;0.70;;;19.40;56.30;;;;;;6188585;23;20093;-68
2021/12/02 02:41:01;;;;;;;2.42;0.40;;;19.50;56.40;;;;;;6188037;23;20012;-68
2021/12/02 02:43:27;;;;;;;2.47;0.70;;;19.50;56.40;;;;;;6164519;23;20328;-68
2021/12/02 02:45:53;;;;;;;2.83;0.47;;;19.40;56.40;;;;;;6215914;23;20340;-68
2021/12/02 02:48:19;;;;;;;3.60;0.50;;;19.40;56.40;;;;;;6215978;23;19996;-68
2021/12/02 02:50:44;;;;;;;0.98;0.63;;;19.50;56.40;;;;;;6189815;23;20004;-68
2021/12/02 02:53:15;;;;;;;2.63;0.60;;;19.50;56.40;;;;;;6216057;23;20000;-68
2021/12/02 02:55:42;;;;;;;1.85;0.43;;;19.40;56.40;;;;;;6190038;23;20001;-68
2021/12/02 03:03:49;;;;;;;2.90;0.50;;;19.40;56.50;;;;;;6190823;23;20012;-68
2021/12/02 03:09:00;;;;;;;2.17;0.65;;;19.40;56.60;;;;;;6169665;23;20007;-68
2021/12/02 03:11:28;;;;;;;1.05;0.35;;;19.40;56.60;;;;;;6191266;23;20004;-68
2021/12/02 03:13:54;;;;;;;1.23;0.50;;;19.40;56.60;;;;;;6165236;23;20454;-68
2021/12/02 03:16:44;;;;;;;1.92;0.60;;;19.40;56.60;;;;;;6164797;23;20180;-68
2021/12/02 03:19:11;;;;;;;1.40;0.40;;;19.40;56.60;;;;;;6174911;23;20028;-68
2021/12/02 03:21:37;;;;;;;1.20;0.40;;;19.40;56.60;;;;;;6164546;23;20004;-68
2021/12/02 03:24:03;;;;;;;1.35;0.40;;;19.40;56.70;;;;;;6189117;23;20310;-68
2021/12/02 03:26:29;;;;;;;1.15;0.60;;;19.40;56.60;;;;;;6189119;23;20072;-68
2021/12/02 03:28:55;;;;;;;0.90;0.50;;;19.40;56.70;;;;;;6215596;23;20082;-68
2021/12/02 03:31:21;;;;;;;1.23;0.30;;;19.40;56.70;;;;;;6189288;23;20039;-68
2021/12/02 03:33:46;;;;;;;0.22;0.22;;;19.40;56.70;;;;;;6215662;23;20000;-68
2021/12/02 03:36:12;;;;;;;1.92;0.50;;;19.40;56.70;;;;;;6215623;23;20055;-68
2021/12/02 03:38:38;;;;;;;0.80;0.50;;;19.40;56.70;;;;;;6188582;23;20016;-68
2021/12/02 03:41:04;;;;;;;0.93;0.40;;;19.40;56.80;;;;;;6215564;23;20083;-68
2021/12/02 03:43:37;;;;;;;0.57;0.45;;;19.40;56.80;;;;;;6164336;23;20480;-68
2021/12/02 03:46:03;;;;;;;0.52;0.38;;;19.40;56.80;;;;;;6189374;23;20001;-68
2021/12/02 03:48:28;;;;;;;1.02;0.30;;;19.40;56.90;;;;;;6189049;23;20004;-68
2021/12/02 03:50:54;;;;;;;0.50;0.40;;;19.40;56.80;;;;;;6215929;23;20007;-68
2021/12/02 03:53:19;;;;;;;0.93;0.63;;;19.40;56.90;;;;;;6188923;23;20340;-68
2021/12/02 03:55:45;;;;;;;3.50;0.50;;;19.40;56.90;;;;;;6215473;23;20005;-68
2021/12/02 03:58:11;;;;;;;1.02;0.68;;;19.40;56.90;;;;;;6215545;23;20396;-68
2021/12/02 04:00:36;;;;;;;0.85;0.30;;;19.30;56.80;;;;;;6215226;23;20341;-68
2021/12/02 04:03:02;;;;;;;0.30;0.30;;;19.30;56.90;;;;;;6215374;23;20011;-68
2021/12/02 04:05:27;;;;;;;1.55;0.45;;;19.30;56.90;;;;;;6215334;23;19997;-68
2021/12/02 04:07:53;;;;;;;1.15;0.45;;;19.30;56.90;;;;;;6188586;23;20060;-68
2021/12/02 04:10:19;;;;;;;0.77;0.30;;;19.30;56.90;;;;;;6188617;23;20343;-68
2021/12/02 04:15:26;;;;;;;0.50;0.40;;;19.30;56.90;;;;;;6189842;23;20009;-68
2021/12/02 04:17:52;;;;;;;0.50;0.45;;;19.30;56.90;;;;;;6188690;23;20344;-68
2021/12/02 04:20:19;;;;;;;0.28;0.28;;;19.30;57.00;;;;;;6215220;23;20446;-68
2021/12/02 04:22:45;;;;;;;0.57;0.40;;;19.30;57.00;;;;;;6163798;23;20000;-68
2021/12/02 04:25:12;;;;;;;0.68;0.40;;;19.30;57.00;;;;;;6164187;23;19997;-68
2021/12/02 04:27:37;;;;;;;1.65;0.40;;;19.30;57.10;;;;;;6188410;23;20019;-68
2021/12/02 04:30:08;;;;;;;0.95;0.30;;;19.30;57.00;;;;;;6188980;23;20001;-68
2021/12/02 04:32:34;;;;;;;1.17;0.45;;;19.30;57.00;;;;;;6214848;23;20059;-68
2021/12/02 04:35:00;;;;;;;1.10;0.47;;;19.30;57.00;;;;;;6163739;23;20008;-68
2021/12/02 04:37:26;;;;;;;0.80;0.60;;;19.30;57.00;;;;;;6188331;23;20071;-68
2021/12/02 04:39:51;;;;;;;0.98;0.38;;;19.30;57.10;;;;;;6215185;23;20001;-68
2021/12/02 04:42:17;;;;;;;0.40;0.32;;;19.30;57.10;;;;;;6188512;23;20076;-68
2021/12/02 04:44:42;;;;;;;0.63;0.30;;;19.30;57.20;;;;;;6215013;23;20098;-68
2021/12/02 04:47:08;;;;;;;0.50;0.30;;;19.30;57.10;;;;;;6215019;23;19997;-68
2021/12/02 04:49:35;;;;;;;0.95;0.45;;;19.30;57.20;;;;;;6214515;23;20080;-68
2021/12/02 04:52:01;;;;;;;0.40;0.30;;;19.30;57.20;;;;;;6188825;23;20004;-68
2021/12/02 04:54:26;;;;;;;0.88;0.35;;;19.30;57.20;;;;;;6214771;23;20004;-68
2021/12/02 04:56:52;;;;;;;0.25;0.22;;;19.30;57.20;;;;;;6188489;23;20047;-68
2021/12/02 04:59:18;;;;;;;1.05;0.32;;;19.30;57.20;;;;;;6188344;23;20005;-68
2021/12/02 05:01:43;;;;;;;1.20;0.30;;;19.30;57.20;;;;;;6188365;23;20004;-68
2021/12/02 05:04:09;;;;;;;3.20;0.40;;;19.30;57.20;;;;;;6188153;23;20007;-68
2021/12/02 05:06:35;;;;;;;0.55;0.35;;;19.30;57.30;;;;;;6214714;23;20003;-68
2021/12/02 05:09:00;;;;;;;0.40;0.40;;;19.20;57.20;;;;;;6215101;23;20015;-68
2021/12/02 05:11:26;;;;;;;0.32;0.32;;;19.30;58.20;;;;;;6214816;23;20004;-68
2021/12/02 05:13:52;;;;;;;0.43;0.25;;;19.30;57.30;;;;;;6214711;23;20001;-68
2021/12/02 05:16:17;;;;;;;1.58;0.40;;;19.30;57.30;;;;;;6214783;23;20000;-68
2021/12/02 05:18:43;;;;;;;0.30;0.30;;;19.20;57.30;;;;;;6187853;23;20339;-68
2021/12/02 05:21:08;;;;;;;1.20;0.40;;;19.20;57.20;;;;;;6214527;23;20004;-68
2021/12/02 05:23:34;;;;;;;0.43;0.32;;;19.30;57.30;;;;;;6214639;23;19997;-68
2021/12/02 05:26:00;;;;;;;0.40;0.20;;;19.30;57.30;;;;;;6188409;23;20005;-68
2021/12/02 05:28:25;;;;;;;3.97;0.63;;;19.30;57.30;;;;;;6187930;23;20579;-68
2021/12/02 05:30:51;;;;;;;0.50;0.50;;;19.30;57.40;;;;;;6188348;23;20379;-68
2021/12/02 05:33:17;;;;;;;1.40;0.50;;;19.20;57.30;;;;;;6214234;23;20054;-68
2021/12/02 05:35:43;;;;;;;0.55;0.30;;;19.20;57.40;;;;;;6188014;23;20367;-68
2021/12/02 05:38:09;;;;;;;0.90;0.30;;;19.20;57.40;;;;;;6188496;23;20011;-68
2021/12/02 05:40:34;;;;;;;0.95;0.50;;;19.20;57.30;;;;;;6188034;23;20336;-68
2021/12/02 05:43:00;;;;;;;1.30;0.47;;;19.20;57.30;;;;;;6214454;23;20467;-68
2021/12/02 05:45:25;;;;;;;0.35;0.20;;;19.20;57.50;;;;;;6214559;23;20440;-68
2021/12/02 05:47:51;;;;;;;1.20;0.40;;;19.20;57.40;;;;;;6214061;23;20028;-68
2021/12/02 05:50:17;;;;;;;0.98;0.30;;;19.20;57.40;;;;;;6188044;23;20007;-68
2021/12/02 05:52:42;;;;;;;0.28;0.20;;;19.20;57.40;;;;;;6214725;23;20383;-68
2021/12/02 05:55:08;;;;;;;0.40;0.40;;;19.30;57.50;;;;;;6214541;23;20432;-68
2021/12/02 05:57:34;;;;;;;0.68;0.30;;;19.20;57.50;;;;;;6214190;23;20001;-68
2021/12/02 05:59:59;;;;;;;0.77;0.30;;;19.20;57.50;;;;;;6188205;23;20076;-68
2021/12/02 06:02:25;;;;;;;1.77;0.40;;;19.20;58.50;;;;;;6187446;23;20004;-68
2021/12/02 06:04:52;;;;;;;0.70;0.32;;;19.20;57.50;;;;;;6214535;23;20067;-68
2021/12/02 06:07:19;;;;;;;0.75;0.30;;;19.20;57.50;;;;;;6214518;23;20032;-68
2021/12/02 06:09:45;;;;;;;0.20;0.20;;;19.20;57.50;;;;;;6162710;23;20372;-68
2021/12/02 06:12:10;;;;;;;0.60;0.20;;;19.20;57.60;;;;;;6163415;23;20004;-68
2021/12/02 06:14:36;;;;;;;0.60;0.35;;;19.20;57.60;;;;;;6214258;23;20031;-68
2021/12/02 06:17:02;;;;;;;0.20;0.20;;;19.20;57.60;;;;;;6187468;23;20336;-68
2021/12/02 06:19:27;;;;;;;0.35;0.30;;;19.20;57.60;;;;;;6214384;23;20055;-68
2021/12/02 06:21:55;;;;;;;0.60;0.25;;;19.20;57.60;;;;;;6214042;23;20391;-68
2021/12/02 06:24:27;;;;;;;0.75;0.47;;;19.20;57.70;;;;;;6214729;23;20032;-68
2021/12/02 06:26:53;;;;;;;0.52;0.40;;;19.20;57.60;;;;;;6214387;23;20004;-68
2021/12/02 06:29:19;;;;;;;0.40;0.40;;;19.20;57.70;;;;;;6214190;23;20526;-68
2021/12/02 06:31:44;;;;;;;0.40;0.28;;;19.20;57.70;;;;;;6185856;23;20432;-68
2021/12/02 06:34:10;;;;;;;1.27;0.35;;;19.20;57.70;;;;;;6213255;23;20004;-68
2021/12/02 06:36:37;;;;;;;1.17;0.40;;;19.20;57.70;;;;;;6213136;23;20091;-68
2021/12/02 06:39:03;;;;;;;0.82;0.40;;;19.20;57.70;;;;;;6213521;23;20008;-68
2021/12/02 06:41:29;;;;;;;1.63;0.50;;;19.20;57.70;;;;;;6186722;23;20007;-68
2021/12/02 06:43:55;;;;;;;1.23;0.40;;;19.20;57.70;;;;;;6213369;23;20005;-68
2021/12/02 06:46:20;;;;;;;0.22;0.20;;;19.20;58.70;;;;;;6212994;23;20011;-67
2021/12/02 06:48:48;;;;;;;1.23;0.25;;;19.20;57.90;;;;;;6213318;23;20008;-68
2021/12/02 06:51:14;;;;;;;0.40;0.40;;;19.20;57.90;;;;;;6213255;23;20024;-68
2021/12/02 06:53:40;;;;;;;0.40;0.25;;;19.20;57.80;;;;;;6186703;23;20437;-68
2021/12/02 06:56:06;;;;;;;0.20;0.20;;;19.20;57.80;;;;;;6213439;23;20124;-68
2021/12/02 06:58:31;;;;;;;0.20;0.20;;;19.20;57.70;;;;;;6186293;23;20008;-68
2021/12/02 07:00:57;;;;;;;0.20;0.20;;;19.20;57.70;;;;;;6213458;23;20059;-68
2021/12/02 07:03:23;;;;;;;0.40;0.30;;;19.20;57.70;;;;;;6215041;23;20119;-68
2021/12/02 07:05:48;;;;;;;0.55;0.30;;;19.20;57.60;;;;;;6214608;23;20000;-68
2021/12/02 07:08:14;;;;;;;0.40;0.20;;;19.20;57.60;;;;;;6214807;23;20023;-68
2021/12/02 07:10:40;;;;;;;0.30;0.20;;;19.20;57.60;;;;;;6214939;23;20347;-68
2021/12/02 07:13:06;;;;;;;0.60;0.30;;;19.20;57.60;;;;;;6188343;23;20001;-68
2021/12/02 07:15:34;;;;;;;0.82;0.40;;;19.20;57.60;;;;;;6188126;23;20091;-68
2021/12/02 07:18:01;;;;;;;0.20;0.20;;;19.10;57.50;;;;;;6214691;23;20005;-68
2021/12/02 07:20:29;;;;;;;0.20;0.20;;;19.20;57.60;;;;;;6162828;23;20004;-68
2021/12/02 07:22:58;;;;;;;0.38;0.20;;;19.20;57.50;;;;;;6214083;23;20067;-68
2021/12/02 07:25:24;;;;;;;0.40;0.20;;;19.10;57.40;;;;;;6187883;23;20528;-68
2021/12/02 07:27:50;;;;;;;0.65;0.30;;;19.20;57.50;;;;;;6187562;23;20036;-68
2021/12/02 07:30:15;;;;;;;0.22;0.20;;;19.10;57.40;;;;;;6213535;23;20522;-68
2021/12/02 07:32:41;;;;;;;0.30;0.20;;;19.20;57.50;;;;;;6215243;23;20008;-68
2021/12/02 07:35:11;;;;;;;0.70;0.20;;;19.10;57.40;;;;;;6215527;23;20007;-68
2021/12/02 07:37:43;;;;;;;0.17;0.17;;;19.10;57.30;;;;;;6164672;23;20005;-67
2021/12/02 07:40:09;;;;;;;0.40;0.40;;;19.10;57.30;;;;;;6165641;23;20454;-68
2021/12/02 07:42:35;;;;;;;1.13;0.50;;;19.10;57.30;;;;;;6188023;23;20032;-68
2021/12/02 07:45:01;;;;;;;2.28;0.60;;;19.10;58.30;;;;;;6186215;23;20482;-68
2021/12/02 07:47:26;;;;;;;1.60;0.60;;;19.10;57.30;;;;;;6212512;23;20051;-68
2021/12/02 07:49:52;;;;;;;2.15;0.73;;;19.10;57.30;;;;;;6186449;23;19996;-68
2021/12/02 07:52:23;;;;;;;2.17;0.93;;;19.20;57.30;;;;;;6213516;23;20000;-68
2021/12/02 07:54:53;;;;;;;4.57;0.88;;;19.20;57.30;;;;;;6187215;23;20336;-68
2021/12/02 07:57:19;;;;;;;4.47;0.98;;;19.20;57.30;;;;;;6187300;23;20008;-68
2021/12/02 07:59:47;;;;;;;4.13;0.90;;;19.20;57.20;;;;;;6214808;23;20000;-68
2021/12/02 08:02:14;;;;;;;7.28;1.30;;;19.20;57.30;;;;;;6189701;23;20641;-68
2021/12/02 08:04:40;;;;;;;5.22;1.25;;;19.20;57.20;;;;;;6189105;23;20024;-68
2021/12/02 08:07:08;;;;;;;2.63;1.17;;;19.20;57.20;;;;;;6188905;23;20047;-68
2021/12/02 08:09:34;;;;;;;5.95;1.33;;;19.20;57.20;;;;;;6215425;23;20000;-68
2021/12/02 08:12:00;;;;;;;4.43;1.45;;;19.20;57.20;;;;;;6214758;23;20106;-68
2021/12/02 08:14:26;;;;;;;3.17;1.10;;;19.20;57.20;;;;;;6188713;23;20340;-68
2021/12/02 08:16:52;;;;;;;3.72;1.10;;;19.20;57.20;;;;;;6188768;23;20031;-68
2021/12/02 08:19:18;;;;;;;2.00;1.10;;;19.20;57.20;;;;;;6188804;23;20013;-68
2021/12/02 08:21:43;;;;;;;3.05;1.30;;;19.20;57.20;;;;;;6215001;23;20001;-68
2021/12/02 08:24:09;;;;;;;2.50;0.80;;;19.20;57.20;;;;;;6188956;23;20510;-68
2021/12/02 08:26:35;;;;;;;2.38;0.80;;;19.20;57.20;;;;;;6188754;23;20004;-68
2021/12/02 08:29:01;;;;;;;7.20;1.48;;;19.20;57.20;;;;;;6188126;23;20345;-68
2021/12/02 08:31:27;;;;;;;1.95;0.80;;;19.20;57.10;;;;;;6164192;23;20026;-68
2021/12/02 08:33:53;;;;;;;1.88;0.93;;;19.20;57.10;;;;;;6188554;23;20448;-68
2021/12/02 08:36:23;;;;;;;4.30;1.10;;;19.20;57.10;;;;;;6215267;23;20001;-68
2021/12/02 08:38:49;;;;;;;3.72;1.10;;;19.20;57.10;;;;;;6215121;23;20008;-68
2021/12/02 08:41:19;;;;;;;2.67;1.10;;;19.20;57.10;;;;;;6214990;23;20007;-68
2021/12/02 08:43:45;;;;;;;2.72;0.80;;;19.20;57.10;;;;;;6214598;23;20007;-68
2021/12/02 08:46:11;;;;;;;2.50;0.63;;;19.20;57.10;;;;;;6188722;23;20004;-68
2021/12/02 08:48:37;;;;;;;4.93;0.90;;;19.20;57.10;;;;;;6215068;23;20003;-68
2021/12/02 08:51:02;;;;;;;2.63;0.80;;;19.20;57.10;;;;;;6188328;23;20431;-68
2021/12/02 08:53:28;;;;;;;2.63;1.08;;;19.20;57.10;;;;;;6215158;23;20436;-68
2021/12/02 08:55:54;;;;;;;1.88;0.55;;;19.20;57.10;;;;;;6214740;23;20000;-68
2021/12/02 08:58:19;;;;;;;1.67;0.75;;;19.20;57.10;;;;;;6188200;23;20003;-68
2021/12/02 09:00:46;;;;;;;2.72;0.80;;;19.20;57.10;;;;;;6188480;23;20388;-68
2021/12/02 09:03:15;;;;;;;1.40;0.73;;;19.20;57.10;;;;;;6188628;23;20005;-68
2021/12/02 09:05:41;;;;;;;3.00;0.88;;;19.20;57.00;;;;;;6188460;23;20007;-68
2021/12/02 09:08:07;;;;;;;3.35;1.13;;;19.20;57.00;;;;;;6188508;23;20000;-68
2021/12/02 09:10:33;;;;;;;2.25;0.70;;;19.20;57.00;;;;;;6214211;23;20001;-68
2021/12/02 09:12:58;;;;;;;1.85;0.52;;;19.20;57.00;;;;;;6188259;23;20336;-68
2021/12/02 09:15:24;;;;;;;1.40;0.77;;;19.20;57.00;;;;;;6214982;23;20000;-68
2021/12/02 09:17:50;;;;;;;3.55;0.93;;;19.20;57.00;;;;;;6188224;23;20459;-68
2021/12/02 09:20:16;;;;;;;2.00;0.90;;;19.20;57.00;;;;;;6214690;23;20005;-68
2021/12/02 09:22:43;;;;;;;3.10;0.63;;;19.20;57.00;;;;;;6187939;23;20080;-68
2021/12/02 09:25:09;;;;;;;1.75;0.80;;;19.20;57.00;;;;;;6163125;23;20000;-68
2021/12/02 09:27:34;;;;;;;1.58;0.70;;;19.20;57.00;;;;;;6214912;23;20017;-68
2021/12/02 09:30:00;;;;;;;4.50;0.60;;;19.20;57.00;;;;;;6214578;23;20321;-68
2021/12/02 09:32:27;;;;;;;0.60;0.60;;;19.20;57.00;;;;;;6214645;23;20076;-68
2021/12/02 09:34:52;;;;;;;1.30;0.68;;;19.20;57.00;;;;;;6163457;23;20072;-68
2021/12/02 09:37:18;;;;;;;0.95;0.50;;;19.20;57.00;;;;;;6188158;23;20035;-68
2021/12/02 09:39:44;;;;;;;0.80;0.52;;;19.20;57.00;;;;;;6187762;23;20404;-68
2021/12/02 09:42:10;;;;;;;2.03;0.88;;;19.20;57.00;;;;;;6188130;23;20004;-68
2021/12/02 09:44:37;;;;;;;1.30;0.70;;;19.20;57.00;;;;;;6188491;23;20000;-68
2021/12/02 09:47:03;;;;;;;1.58;0.68;;;19.20;57.00;;;;;;6214266;23;20000;-68
2021/12/02 09:49:29;;;;;;;1.00;0.80;;;19.20;57.00;;;;;;6214666;23;20001;-68
2021/12/02 09:52:01;;;;;;;2.95;0.70;;;19.20;56.90;;;;;;6187932;23;20008;-68
2021/12/02 09:54:40;;;;;;;1.10;0.65;;;19.20;56.90;;;;;;6189176;23;20384;-67
2021/12/02 09:57:07;;;;;;;2.05;0.60;;;19.20;56.90;;;;;;6190689;23;20028;-67
2021/12/02 09:59:53;;;;;;;1.13;0.70;;;19.20;57.00;;;;;;6164194;23;20440;-68
2021/12/02 10:02:20;;;;;;;1.48;0.70;;;19.20;56.90;;;;;;6214375;23;20059;-68
2021/12/02 10:04:52;;;;;;;2.50;0.80;;;19.20;56.90;;;;;;6214463;23;20325;-68
2021/12/02 10:07:35;;;;;;;1.00;0.65;;;19.20;56.90;;;;;;6164048;23;20000;-68
2021/12/02 10:10:09;;;;;;;0.85;0.57;;;19.20;56.90;;;;;;6168929;23;20000;-68
2021/12/02 10:12:37;;;;;;;1.75;0.50;;;19.20;56.90;;;;;;6214334;23;20008;-68
2021/12/02 10:15:08;;;;;;;1.00;0.50;;;19.20;56.90;;;;;;6214200;23;20035;-68
2021/12/02 10:17:49;;;;;;;0.93;0.52;;;19.20;56.90;;;;;;6214432;23;20011;-68
2021/12/02 10:22:46;;;;;;;1.65;0.50;;;19.20;56.90;;;;;;6214511;23;20332;-68
2021/12/02 10:25:11;;;;;;;2.72;0.50;;;19.20;56.80;;;;;;6187946;23;19997;-68
2021/12/02 10:28:20;;;;;;;0.85;0.50;;;19.20;56.80;;;;;;6162972;23;20008;-68
2021/12/02 10:30:54;;;;;;;1.15;0.65;;;19.20;56.70;;;;;;6181548;23;20001;-68
2021/12/02 10:33:32;;;;;;;1.45;0.60;;;19.20;56.80;;;;;;6188886;23;20016;-68
2021/12/02 10:35:58;;;;;;;1.30;0.43;;;19.20;56.80;;;;;;6189281;23;20000;-68
2021/12/02 10:38:44;;;;;;;0.80;0.50;;;19.20;56.80;;;;;;6215875;23;20012;-68
2021/12/02 10:41:22;;;;;;;1.00;0.40;;;19.20;56.70;;;;;;6215934;23;20454;-68
2021/12/02 10:44:09;;;;;;;1.48;0.60;;;19.20;56.70;;;;;;6216189;23;20003;-67
2021/12/02 10:46:36;;;;;;;0.70;0.40;;;19.20;56.60;;;;;;6216231;23;20067;-67
2021/12/02 10:49:02;;;;;;;1.77;0.65;;;19.20;56.70;;;;;;6189462;23;20075;-68
2021/12/02 10:51:50;;;;;;;1.50;0.60;;;19.10;56.70;;;;;;6189659;23;20071;-68
2021/12/02 10:54:21;;;;;;;0.75;0.40;;;19.20;56.60;;;;;;6215760;23;20011;-68
2021/12/02 10:56:50;;;;;;;0.95;0.50;;;19.10;56.70;;;;;;6216164;23;20001;-68
2021/12/02 10:59:39;;;;;;;0.98;0.60;;;19.10;56.70;;;;;;6215923;23;20032;-68
2021/12/02 11:02:15;;;;;;;2.60;0.50;;;19.20;56.50;;;;;;6215858;23;20011;-68
2021/12/02 11:04:43;;;;;;;0.32;0.32;;;19.10;56.60;;;;;;6191296;23;20062;-68
2021/12/02 11:07:19;;;;;;;0.35;0.30;;;19.10;56.70;;;;;;6215381;23;20436;-68
2021/12/02 11:09:45;;;;;;;1.80;0.60;;;19.10;56.60;;;;;;6164789;23;20035;-68
2021/12/02 11:12:16;;;;;;;3.28;0.50;;;19.10;56.60;;;;;;6189432;23;20012;-68
2021/12/02 11:14:57;;;;;;;0.40;0.40;;;19.10;56.60;;;;;;6189901;23;20011;-68
2021/12/02 11:17:23;;;;;;;0.68;0.40;;;19.10;56.60;;;;;;6167609;23;20115;-68
2021/12/02 11:19:49;;;;;;;0.30;0.20;;;19.10;56.60;;;;;;6189383;23;20020;-68
2021/12/02 11:22:19;;;;;;;0.55;0.30;;;19.10;56.60;;;;;;6188692;23;20004;-68
2021/12/02 11:24:45;;;;;;;0.75;0.47;;;19.10;56.50;;;;;;6189616;23;20000;-68
2021/12/02 11:27:44;;;;;;;0.50;0.38;;;19.20;56.60;;;;;;6215348;23;20047;-68
2021/12/02 11:30:21;;;;;;;0.57;0.50;;;19.20;56.40;;;;;;6207755;23;20004;-68
2021/12/02 11:33:03;;;;;;;1.02;0.50;;;19.10;56.50;;;;;;6215889;23;20008;-68
2021/12/02 11:35:38;;;;;;;0.50;0.40;;;19.10;56.30;;;;;;6188842;23;20005;-68
2021/12/02 11:38:28;;;;;;;1.00;0.43;;;19.10;56.40;;;;;;6215516;23;20000;-68
2021/12/02 11:40:59;;;;;;;0.30;0.30;;;19.10;56.40;;;;;;6193702;23;20004;-68
2021/12/02 11:43:38;;;;;;;1.05;0.50;;;19.10;56.40;;;;;;6189200;23;20005;-68
2021/12/02 11:46:05;;;;;;;0.45;0.30;;;19.10;56.40;;;;;;6166163;23;20004;-68
2021/12/02 11:48:33;;;;;;;1.30;0.43;;;19.10;56.40;;;;;;6189495;23;20004;-68
2021/12/02 11:51:03;;;;;;;0.80;0.40;;;19.10;56.40;;;;;;6188629;23;20001;-68
2021/12/02 11:53:28;;;;;;;0.40;0.40;;;19.10;56.40;;;;;;6165296;23;20075;-68
2021/12/02 11:56:11;;;;;;;0.25;0.25;;;19.10;56.40;;;;;;6189455;23;20036;-68
2021/12/02 11:58:37;;;;;;;0.30;0.30;;;19.10;56.30;;;;;;6215561;23;20424;-68
2021/12/02 12:01:02;;;;;;;1.02;0.40;;;19.10;56.40;;;;;;6188938;23;20068;-68
2021/12/02 12:03:56;;;;;;;0.63;0.30;;;19.10;56.30;;;;;;6215732;23;20482;-68
2021/12/02 12:06:26;;;;;;;0.28;0.25;;;19.10;56.30;;;;;;6208922;23;20000;-68
2021/12/02 12:08:53;;;;;;;0.63;0.40;;;19.10;56.40;;;;;;6188893;23;20084;-68
2021/12/02 12:11:20;;;;;;;1.40;0.40;;;19.10;56.40;;;;;;6163514;23;20000;-68
2021/12/02 12:13:46;;;;;;;0.82;0.35;;;19.10;56.30;;;;;;6215436;23;20000;-68
2021/12/02 12:16:23;;;;;;;1.63;0.40;;;19.10;56.30;;;;;;6188934;23;20071;-68
2021/12/02 12:18:49;;;;;;;0.68;0.30;;;19.20;56.30;;;;;;6215603;23;19997;-68
2021/12/02 12:21:15;;;;;;;1.15;0.43;;;19.10;56.30;;;;;;6163338;23;20000;-68
2021/12/02 12:23:42;;;;;;;0.40;0.30;;;19.10;56.20;;;;;;6215159;23;20458;-68
2021/12/02 12:26:12;;;;;;;0.88;0.40;;;19.20;56.30;;;;;;6215180;23;19996;-68
2021/12/02 12:29:09;;;;;;;0.70;0.45;;;19.20;56.30;;;;;;6188807;23;20021;-68
2021/12/02 12:34:54;;;;;;;0.70;0.40;;;19.20;56.10;;;;;;6214671;23;20091;-68
2021/12/02 12:40:24;;;;;;;0.32;0.28;;;19.10;56.20;;;;;;6215110;23;20020;-68
2021/12/02 12:43:02;;;;;;;1.20;0.30;;;19.10;56.10;;;;;;6215175;23;20037;-68
2021/12/02 12:45:38;;;;;;;0.20;0.20;;;19.10;56.20;;;;;;6215286;23;20079;-68
2021/12/02 12:48:05;;;;;;;0.57;0.30;;;19.10;56.20;;;;;;6189565;23;20000;-68
2021/12/02 12:50:37;;;;;;;0.38;0.28;;;19.10;56.20;;;;;;6188570;23;19997;-68
2021/12/02 12:53:05;;;;;;;0.70;0.40;;;19.10;56.20;;;;;;6214884;23;20083;-68
2021/12/02 12:55:36;;;;;;;0.57;0.30;;;19.10;56.20;;;;;;6215117;23;20001;-68
2021/12/02 12:58:34;;;;;;;0.65;0.25;;;19.10;56.20;;;;;;6163668;23;20011;-67
2021/12/02 13:01:01;;;;;;;0.60;0.30;;;19.20;56.00;;;;;;6188462;23;20005;-68
2021/12/02 13:03:32;;;;;;;0.35;0.30;;;19.10;56.20;;;;;;6188363;23;20004;-67
2021/12/02 13:06:17;;;;;;;0.55;0.20;;;19.10;56.20;;;;;;6214926;23;20025;-68
2021/12/02 13:09:01;;;;;;;0.35;0.25;;;19.10;56.10;;;;;;6214909;23;20059;-68
2021/12/02 13:11:30;;;;;;;0.95;0.17;;;19.10;56.10;;;;;;6191859;23;20063;-68
2021/12/02 13:13:56;;;;;;;0.68;0.50;;;19.10;56.10;;;;;;6164185;23;20345;-68
2021/12/02 13:16:22;;;;;;;0.68;0.30;;;19.10;56.10;;;;;;6188449;23;20000;-68